sensor_id;sensor_type;location;lat;lon;timestamp;pressure;altitude;pressure_sealevel;temperature;humidity
76973;BME280;65907;53.640;10.050;2023-08-24T00:01:23;101241.28;;;27.07;44.76
76973;BME280;65907;53.640;10.050;2023-08-24T00:03:48;101238.28;;;27.01;45.05
76973;BME280;65907;53.640;10.050;2023-08-24T00:06:14;101234.34;;;27.05;44.79
76973;BME280;65907;53.640;10.050;2023-08-24T00:08:41;101239.75;;;27.04;44.62
76973;BME280;65907;53.640;10.050;2023-08-24T00:11:07;101237.47;;;27.09;44.81
76973;BME280;65907;53.640;10.050;2023-08-24T00:13:32;101237.31;;;27.11;44.83
76973;BME280;65907;53.640;10.050;2023-08-24T00:16:00;101238.44;;;27.08;44.79
76973;BME280;65907;53.640;10.050;2023-08-24T00:18:25;101243.44;;;27.11;44.80
76973;BME280;65907;53.640;10.050;2023-08-24T00:20:53;101243.16;;;26.96;44.85
76973;BME280;65907;53.640;10.050;2023-08-24T00:23:18;101241.53;;;26.95;45.36
76973;BME280;65907;53.640;10.050;2023-08-24T00:25:43;101244.91;;;27.05;44.91
76973;BME280;65907;53.640;10.050;2023-08-24T00:28:09;101247.00;;;27.02;44.92
76973;BME280;65907;53.640;10.050;2023-08-24T00:30:34;101243.72;;;27.08;44.85
76973;BME280;65907;53.640;10.050;2023-08-24T00:33:02;101252.75;;;26.97;45.02
76973;BME280;65907;53.640;10.050;2023-08-24T00:35:27;101247.19;;;27.00;44.79
76973;BME280;65907;53.640;10.050;2023-08-24T00:37:55;101247.78;;;26.94;44.99
76973;BME280;65907;53.640;10.050;2023-08-24T00:40:20;101236.81;;;27.07;44.83
76973;BME280;65907;53.640;10.050;2023-08-24T00:42:48;101237.97;;;27.04;44.81
76973;BME280;65907;53.640;10.050;2023-08-24T00:45:13;101233.13;;;27.00;44.94
76973;BME280;65907;53.640;10.050;2023-08-24T00:47:39;101226.06;;;27.00;44.83
76973;BME280;65907;53.640;10.050;2023-08-24T00:50:05;101232.00;;;27.02;44.77
76973;BME280;65907;53.640;10.050;2023-08-24T00:52:31;101231.28;;;26.92;45.05
76973;BME280;65907;53.640;10.050;2023-08-24T00:54:58;101231.34;;;27.00;44.95
76973;BME280;65907;53.640;10.050;2023-08-24T00:57:25;101228.53;;;27.02;44.82
76973;BME280;65907;53.640;10.050;2023-08-24T00:59:50;101223.56;;;26.99;44.94
76973;BME280;65907;53.640;10.050;2023-08-24T01:02:15;101229.19;;;27.04;44.62
76973;BME280;65907;53.640;10.050;2023-08-24T01:04:41;101225.56;;;27.05;44.68
76973;BME280;65907;53.640;10.050;2023-08-24T01:07:07;101224.09;;;27.02;44.86
76973;BME280;65907;53.640;10.050;2023-08-24T01:09:34;101224.56;;;26.98;45.02
76973;BME280;65907;53.640;10.050;2023-08-24T01:12:07;101222.91;;;26.97;44.81
76973;BME280;65907;53.640;10.050;2023-08-24T01:14:41;101221.25;;;26.96;44.91
76973;BME280;65907;53.640;10.050;2023-08-24T01:17:12;101217.44;;;26.98;44.93
76973;BME280;65907;53.640;10.050;2023-08-24T01:22:12;101219.91;;;26.91;44.82
76973;BME280;65907;53.640;10.050;2023-08-24T01:24:45;101223.53;;;26.90;44.97
76973;BME280;65907;53.640;10.050;2023-08-24T01:27:11;101223.34;;;26.92;44.65
76973;BME280;65907;53.640;10.050;2023-08-24T01:29:37;101224.53;;;26.89;45.24
76973;BME280;65907;53.640;10.050;2023-08-24T01:32:05;101224.03;;;26.94;44.91
76973;BME280;65907;53.640;10.050;2023-08-24T01:34:30;101215.44;;;26.92;44.76
76973;BME280;65907;53.640;10.050;2023-08-24T01:36:55;101217.09;;;26.93;44.90
76973;BME280;65907;53.640;10.050;2023-08-24T01:39:22;101210.53;;;26.97;44.73
76973;BME280;65907;53.640;10.050;2023-08-24T01:41:53;101214.78;;;26.90;44.87
76973;BME280;65907;53.640;10.050;2023-08-24T01:44:20;101207.03;;;26.88;45.00
76973;BME280;65907;53.640;10.050;2023-08-24T01:46:46;101219.41;;;26.96;44.62
76973;BME280;65907;53.640;10.050;2023-08-24T01:49:13;101217.09;;;26.93;44.81
76973;BME280;65907;53.640;10.050;2023-08-24T01:51:39;101211.00;;;26.93;44.59
76973;BME280;65907;53.640;10.050;2023-08-24T01:54:04;101208.16;;;26.86;45.01
76973;BME280;65907;53.640;10.050;2023-08-24T01:56:30;101220.72;;;26.92;44.83
76973;BME280;65907;53.640;10.050;2023-08-24T01:58:55;101215.44;;;26.92;45.14
76973;BME280;65907;53.640;10.050;2023-08-24T02:01:22;101212.97;;;26.90;44.72
76973;BME280;65907;53.640;10.050;2023-08-24T02:03:47;101208.19;;;26.94;44.71
76973;BME280;65907;53.640;10.050;2023-08-24T02:06:12;101216.44;;;26.91;44.86
76973;BME280;65907;53.640;10.050;2023-08-24T02:08:39;101213.13;;;26.89;44.76
76973;BME280;65907;53.640;10.050;2023-08-24T02:11:05;101212.31;;;26.88;44.62
76973;BME280;65907;53.640;10.050;2023-08-24T02:13:30;101209.81;;;26.87;44.74
76973;BME280;65907;53.640;10.050;2023-08-24T02:16:05;101208.97;;;26.86;44.90
76973;BME280;65907;53.640;10.050;2023-08-24T02:18:31;101206.84;;;26.90;44.80
76973;BME280;65907;53.640;10.050;2023-08-24T02:20:56;101200.91;;;26.88;44.55
76973;BME280;65907;53.640;10.050;2023-08-24T02:23:21;101198.41;;;26.86;44.62
76973;BME280;65907;53.640;10.050;2023-08-24T02:25:47;101193.31;;;26.85;44.67
76973;BME280;65907;53.640;10.050;2023-08-24T02:28:12;101193.00;;;26.88;44.79
76973;BME280;65907;53.640;10.050;2023-08-24T02:30:40;101194.97;;;26.86;44.90
76973;BME280;65907;53.640;10.050;2023-08-24T02:33:05;101196.75;;;26.85;44.84
76973;BME280;65907;53.640;10.050;2023-08-24T02:35:30;101194.13;;;26.85;44.88
76973;BME280;65907;53.640;10.050;2023-08-24T02:37:58;101196.63;;;26.87;44.68
76973;BME280;65907;53.640;10.050;2023-08-24T02:40:23;101186.22;;;26.85;44.68
76973;BME280;65907;53.640;10.050;2023-08-24T02:42:48;101179.81;;;26.88;44.70
76973;BME280;65907;53.640;10.050;2023-08-24T02:45:16;101178.44;;;26.84;44.62
76973;BME280;65907;53.640;10.050;2023-08-24T02:47:41;101172.88;;;26.87;44.56
76973;BME280;65907;53.640;10.050;2023-08-24T02:50:06;101175.81;;;26.84;44.92
76973;BME280;65907;53.640;10.050;2023-08-24T02:52:32;101175.38;;;26.88;44.60
76973;BME280;65907;53.640;10.050;2023-08-24T02:54:57;101169.84;;;26.82;44.75
76973;BME280;65907;53.640;10.050;2023-08-24T02:57:23;101167.88;;;26.84;44.79
76973;BME280;65907;53.640;10.050;2023-08-24T02:59:48;101170.75;;;26.90;44.48
76973;BME280;65907;53.640;10.050;2023-08-24T03:02:13;101166.22;;;26.83;44.78
76973;BME280;65907;53.640;10.050;2023-08-24T03:04:38;101165.09;;;26.85;44.39
76973;BME280;65907;53.640;10.050;2023-08-24T03:07:03;101165.09;;;26.85;44.51
76973;BME280;65907;53.640;10.050;2023-08-24T03:09:32;101150.13;;;26.86;44.54
76973;BME280;65907;53.640;10.050;2023-08-24T03:11:57;101152.88;;;26.84;44.60
76973;BME280;65907;53.640;10.050;2023-08-24T03:14:25;101159.53;;;26.88;44.48
76973;BME280;65907;53.640;10.050;2023-08-24T03:16:50;101162.94;;;26.81;44.57
76973;BME280;65907;53.640;10.050;2023-08-24T03:19:15;101159.31;;;26.82;44.42
76973;BME280;65907;53.640;10.050;2023-08-24T03:21:42;101162.59;;;26.84;44.56
76973;BME280;65907;53.640;10.050;2023-08-24T03:24:10;101166.38;;;26.81;44.38
76973;BME280;65907;53.640;10.050;2023-08-24T03:26:36;101167.59;;;26.87;44.65
76973;BME280;65907;53.640;10.050;2023-08-24T03:29:01;101168.19;;;26.81;44.71
76973;BME280;65907;53.640;10.050;2023-08-24T03:31:26;101164.59;;;26.82;44.58
76973;BME280;65907;53.640;10.050;2023-08-24T03:33:54;101169.69;;;26.83;44.52
76973;BME280;65907;53.640;10.050;2023-08-24T03:36:21;101177.09;;;26.80;44.37
76973;BME280;65907;53.640;10.050;2023-08-24T03:38:49;101185.41;;;26.85;44.42
76973;BME280;65907;53.640;10.050;2023-08-24T03:41:14;101176.13;;;26.81;44.64
76973;BME280;65907;53.640;10.050;2023-08-24T03:43:42;101183.38;;;26.79;44.66
76973;BME280;65907;53.640;10.050;2023-08-24T03:46:08;101179.88;;;26.78;44.65
76973;BME280;65907;53.640;10.050;2023-08-24T03:48:33;101168.53;;;26.77;44.43
76973;BME280;65907;53.640;10.050;2023-08-24T03:50:58;101165.72;;;26.79;44.32
76973;BME280;65907;53.640;10.050;2023-08-24T03:53:24;101171.81;;;26.80;44.43
76973;BME280;65907;53.640;10.050;2023-08-24T03:55:50;101173.78;;;26.77;44.31
76973;BME280;65907;53.640;10.050;2023-08-24T03:58:15;101164.06;;;26.78;44.42
76973;BME280;65907;53.640;10.050;2023-08-24T04:00:41;101169.31;;;26.78;44.60
76973;BME280;65907;53.640;10.050;2023-08-24T04:03:07;101173.78;;;26.77;44.36
76973;BME280;65907;53.640;10.050;2023-08-24T04:05:32;101184.19;;;26.79;44.42
76973;BME280;65907;53.640;10.050;2023-08-24T04:07:57;101187.66;;;26.80;44.32
76973;BME280;65907;53.640;10.050;2023-08-24T04:10:22;101194.97;;;26.86;44.12
76973;BME280;65907;53.640;10.050;2023-08-24T04:12:48;101203.63;;;26.78;44.19
76973;BME280;65907;53.640;10.050;2023-08-24T04:15:13;101202.13;;;26.75;44.38
76973;BME280;65907;53.640;10.050;2023-08-24T04:17:38;101199.41;;;26.85;44.17
76973;BME280;65907;53.640;10.050;2023-08-24T04:20:04;101202.13;;;26.75;44.36
76973;BME280;65907;53.640;10.050;2023-08-24T04:22:34;101195.03;;;26.76;44.39
76973;BME280;65907;53.640;10.050;2023-08-24T04:24:59;101191.56;;;26.75;44.26
76973;BME280;65907;53.640;10.050;2023-08-24T04:27:25;101194.28;;;26.84;43.98
76973;BME280;65907;53.640;10.050;2023-08-24T04:29:50;101216.28;;;26.74;44.34
76973;BME280;65907;53.640;10.050;2023-08-24T04:32:15;101208.75;;;26.80;44.21
76973;BME280;65907;53.640;10.050;2023-08-24T04:34:40;101212.38;;;26.79;44.07
76973;BME280;65907;53.640;10.050;2023-08-24T04:37:08;101206.59;;;26.75;44.13
76973;BME280;65907;53.640;10.050;2023-08-24T04:39:35;101201.34;;;26.83;43.95
76973;BME280;65907;53.640;10.050;2023-08-24T04:42:03;101194.91;;;26.77;44.24
76973;BME280;65907;53.640;10.050;2023-08-24T04:44:28;101184.34;;;26.77;44.02
76973;BME280;65907;53.640;10.050;2023-08-24T04:46:53;101191.09;;;26.80;44.06
76973;BME280;65907;53.640;10.050;2023-08-24T04:49:19;101207.38;;;26.75;44.27
76973;BME280;65907;53.640;10.050;2023-08-24T04:51:44;101211.41;;;26.80;44.21
76973;BME280;65907;53.640;10.050;2023-08-24T04:54:11;101213.38;;;26.77;44.15
76973;BME280;65907;53.640;10.050;2023-08-24T04:56:37;101222.75;;;26.80;44.29
76973;BME280;65907;53.640;10.050;2023-08-24T04:59:02;101221.63;;;26.83;44.21
76973;BME280;65907;53.640;10.050;2023-08-24T05:01:30;101210.25;;;26.82;43.91
76973;BME280;65907;53.640;10.050;2023-08-24T05:03:58;101199.03;;;26.80;44.03
76973;BME280;65907;53.640;10.050;2023-08-24T05:06:23;101198.69;;;26.83;44.02
76973;BME280;65907;53.640;10.050;2023-08-24T05:08:48;101198.03;;;26.81;44.19
76973;BME280;65907;53.640;10.050;2023-08-24T05:11:16;101201.84;;;26.79;44.06
76973;BME280;65907;53.640;10.050;2023-08-24T05:13:41;101202.19;;;26.84;43.98
76973;BME280;65907;53.640;10.050;2023-08-24T05:16:06;101193.44;;;26.83;44.36
76973;BME280;65907;53.640;10.050;2023-08-24T05:18:34;101189.00;;;26.84;44.22
76973;BME280;65907;53.640;10.050;2023-08-24T05:21:00;101184.03;;;26.81;44.08
76973;BME280;65907;53.640;10.050;2023-08-24T05:23:26;101188.47;;;26.80;44.17
76973;BME280;65907;53.640;10.050;2023-08-24T05:25:51;101196.38;;;26.80;44.25
76973;BME280;65907;53.640;10.050;2023-08-24T05:28:16;101190.75;;;26.75;44.31
76973;BME280;65907;53.640;10.050;2023-08-24T05:30:41;101194.06;;;26.77;44.42
76973;BME280;65907;53.640;10.050;2023-08-24T05:33:07;101201.72;;;26.62;44.65
76973;BME280;65907;53.640;10.050;2023-08-24T05:35:32;101221.78;;;21.99;55.83
76973;BME280;65907;53.640;10.050;2023-08-24T05:37:57;101224.28;;;20.73;60.42
76973;BME280;65907;53.640;10.050;2023-08-24T05:40:22;101229.13;;;20.31;61.98
76973;BME280;65907;53.640;10.050;2023-08-24T05:42:47;101230.19;;;19.91;62.91
76973;BME280;65907;53.640;10.050;2023-08-24T05:45:13;101234.16;;;19.97;62.77
76973;BME280;65907;53.640;10.050;2023-08-24T05:47:38;101234.25;;;19.82;63.12
76973;BME280;65907;53.640;10.050;2023-08-24T05:50:03;101233.84;;;19.88;63.65
76973;BME280;65907;53.640;10.050;2023-08-24T05:52:28;101234.38;;;19.94;63.61
76973;BME280;65907;53.640;10.050;2023-08-24T05:54:54;101221.31;;;19.81;63.99
76973;BME280;65907;53.640;10.050;2023-08-24T05:57:21;101211.50;;;19.84;63.30
76973;BME280;65907;53.640;10.050;2023-08-24T05:59:47;101207.03;;;19.60;64.46
76973;BME280;65907;53.640;10.050;2023-08-24T06:02:14;101196.31;;;19.65;64.11
76973;BME280;65907;53.640;10.050;2023-08-24T06:04:39;101194.69;;;19.88;63.52
76973;BME280;65907;53.640;10.050;2023-08-24T06:07:05;101178.03;;;20.27;62.01
76973;BME280;65907;53.640;10.050;2023-08-24T06:09:30;101180.59;;;19.91;63.18
76973;BME280;65907;53.640;10.050;2023-08-24T06:11:56;101173.91;;;19.49;65.05
76973;BME280;65907;53.640;10.050;2023-08-24T06:14:21;101176.50;;;20.00;63.35
76973;BME280;65907;53.640;10.050;2023-08-24T06:16:47;101183.00;;;19.44;65.38
76973;BME280;65907;53.640;10.050;2023-08-24T06:19:13;101170.19;;;19.41;65.33
76973;BME280;65907;53.640;10.050;2023-08-24T06:21:41;101168.72;;;19.11;65.49
76973;BME280;65907;53.640;10.050;2023-08-24T06:24:06;101163.09;;;19.17;65.37
76973;BME280;65907;53.640;10.050;2023-08-24T06:26:32;101166.13;;;19.74;63.92
76973;BME280;65907;53.640;10.050;2023-08-24T06:28:57;101172.34;;;19.97;63.18
76973;BME280;65907;53.640;10.050;2023-08-24T06:31:24;101160.56;;;19.41;64.89
76973;BME280;65907;53.640;10.050;2023-08-24T06:33:50;101162.13;;;19.44;64.97
76973;BME280;65907;53.640;10.050;2023-08-24T06:36:15;101157.81;;;19.56;64.85
76973;BME280;65907;53.640;10.050;2023-08-24T06:38:40;101157.13;;;19.78;63.82
76973;BME280;65907;53.640;10.050;2023-08-24T06:41:06;101163.47;;;19.87;63.51
76973;BME280;65907;53.640;10.050;2023-08-24T06:43:33;101153.22;;;19.97;64.39
76973;BME280;65907;53.640;10.050;2023-08-24T06:45:59;101143.00;;;19.94;63.78
76973;BME280;65907;53.640;10.050;2023-08-24T06:48:24;101149.22;;;20.04;64.14
76973;BME280;65907;53.640;10.050;2023-08-24T06:50:49;101134.59;;;20.26;62.54
76973;BME280;65907;53.640;10.050;2023-08-24T06:53:19;101144.16;;;20.38;62.87
76973;BME280;65907;53.640;10.050;2023-08-24T06:55:44;101144.97;;;20.39;62.85
76973;BME280;65907;53.640;10.050;2023-08-24T06:58:09;101144.63;;;20.43;63.09
76973;BME280;65907;53.640;10.050;2023-08-24T07:00:35;101148.09;;;21.02;62.82
76973;BME280;65907;53.640;10.050;2023-08-24T07:03:00;101155.56;;;21.07;60.99
76973;BME280;65907;53.640;10.050;2023-08-24T07:05:25;101157.63;;;21.26;60.30
76973;BME280;65907;53.640;10.050;2023-08-24T07:07:51;101156.41;;;21.30;59.91
76973;BME280;65907;53.640;10.050;2023-08-24T07:10:16;101164.78;;;20.66;62.61
76973;BME280;65907;53.640;10.050;2023-08-24T07:12:45;101160.50;;;20.76;61.30
76973;BME280;65907;53.640;10.050;2023-08-24T07:15:18;101155.75;;;20.70;61.10
76973;BME280;65907;53.640;10.050;2023-08-24T07:17:43;101160.16;;;20.33;62.16
76973;BME280;65907;53.640;10.050;2023-08-24T07:20:08;101160.25;;;20.68;61.97
76973;BME280;65907;53.640;10.050;2023-08-24T07:22:34;101150.91;;;20.76;60.83
76973;BME280;65907;53.640;10.050;2023-08-24T07:25:00;101152.00;;;21.08;61.28
76973;BME280;65907;53.640;10.050;2023-08-24T07:27:25;101143.91;;;21.45;59.79
76973;BME280;65907;53.640;10.050;2023-08-24T07:29:50;101139.38;;;21.47;58.62
76973;BME280;65907;53.640;10.050;2023-08-24T07:32:18;101137.03;;;21.22;59.58
76973;BME280;65907;53.640;10.050;2023-08-24T07:34:44;101130.47;;;21.73;58.39
76973;BME280;65907;53.640;10.050;2023-08-24T07:37:09;101130.47;;;21.39;59.02
76973;BME280;65907;53.640;10.050;2023-08-24T07:39:34;101126.06;;;21.62;58.58
76973;BME280;65907;53.640;10.050;2023-08-24T07:42:02;101116.28;;;22.08;58.37
76973;BME280;65907;53.640;10.050;2023-08-24T07:44:27;101108.84;;;22.67;56.02
76973;BME280;65907;53.640;10.050;2023-08-24T07:46:53;101107.31;;;23.05;54.79
76973;BME280;65907;53.640;10.050;2023-08-24T07:49:18;101099.91;;;23.91;52.70
76973;BME280;65907;53.640;10.050;2023-08-24T07:51:43;101090.94;;;24.71;50.00
76973;BME280;65907;53.640;10.050;2023-08-24T07:54:09;101099.78;;;25.35;48.59
76973;BME280;65907;53.640;10.050;2023-08-24T07:56:34;101096.56;;;25.42;48.30
76973;BME280;65907;53.640;10.050;2023-08-24T07:58:59;101086.91;;;25.60;47.99
76973;BME280;65907;53.640;10.050;2023-08-24T08:01:25;101081.53;;;25.52;48.22
76973;BME280;65907;53.640;10.050;2023-08-24T08:03:50;101086.00;;;25.70;47.82
76973;BME280;65907;53.640;10.050;2023-08-24T08:06:15;101084.75;;;25.82;47.36
76973;BME280;65907;53.640;10.050;2023-08-24T08:08:40;101081.00;;;25.85;47.37
76973;BME280;65907;53.640;10.050;2023-08-24T08:11:06;101070.91;;;25.98;46.94
76973;BME280;65907;53.640;10.050;2023-08-24T08:13:31;101073.25;;;26.01;46.93
76973;BME280;65907;53.640;10.050;2023-08-24T08:16:03;101076.31;;;25.42;48.75
76973;BME280;65907;53.640;10.050;2023-08-24T08:18:29;101077.63;;;25.56;48.27
76973;BME280;65907;53.640;10.050;2023-08-24T08:20:54;101072.88;;;25.78;47.74
76973;BME280;65907;53.640;10.050;2023-08-24T08:23:19;101072.03;;;25.96;47.46
76973;BME280;65907;53.640;10.050;2023-08-24T08:25:45;101074.53;;;25.79;47.66
76973;BME280;65907;53.640;10.050;2023-08-24T08:28:10;101067.88;;;26.11;46.75
76973;BME280;65907;53.640;10.050;2023-08-24T08:30:35;101076.59;;;26.12;46.95
76973;BME280;65907;53.640;10.050;2023-08-24T08:33:00;101076.84;;;26.18;46.89
76973;BME280;65907;53.640;10.050;2023-08-24T08:35:26;101077.19;;;26.24;46.63
76973;BME280;65907;53.640;10.050;2023-08-24T08:37:51;101083.81;;;26.28;46.55
76973;BME280;65907;53.640;10.050;2023-08-24T08:40:18;101083.81;;;26.28;46.41
76973;BME280;65907;53.640;10.050;2023-08-24T08:42:46;101084.78;;;26.27;46.51
76973;BME280;65907;53.640;10.050;2023-08-24T08:45:11;101080.19;;;26.29;46.60
76973;BME280;65907;53.640;10.050;2023-08-24T08:47:37;101082.53;;;26.32;46.26
76973;BME280;65907;53.640;10.050;2023-08-24T08:50:03;101079.38;;;26.28;46.49
76973;BME280;65907;53.640;10.050;2023-08-24T08:52:33;101070.34;;;26.31;46.37
76973;BME280;65907;53.640;10.050;2023-08-24T08:54:59;101072.81;;;26.32;46.30
76973;BME280;65907;53.640;10.050;2023-08-24T08:57:24;101070.81;;;26.26;46.50
76973;BME280;65907;53.640;10.050;2023-08-24T08:59:52;101064.03;;;26.24;46.72
76973;BME280;65907;53.640;10.050;2023-08-24T09:02:20;101066.81;;;26.22;46.40
76973;BME280;65907;53.640;10.050;2023-08-24T09:04:47;101068.31;;;26.25;46.58
76973;BME280;65907;53.640;10.050;2023-08-24T09:07:13;101066.50;;;26.25;46.46
76973;BME280;65907;53.640;10.050;2023-08-24T09:09:38;101067.22;;;26.09;47.01
76973;BME280;65907;53.640;10.050;2023-08-24T09:12:07;101065.47;;;26.18;46.78
76973;BME280;65907;53.640;10.050;2023-08-24T09:14:33;101062.69;;;26.19;46.82
76973;BME280;65907;53.640;10.050;2023-08-24T09:16:58;101052.91;;;26.38;46.68
76973;BME280;65907;53.640;10.050;2023-08-24T09:19:30;101052.94;;;26.46;46.36
76973;BME280;65907;53.640;10.050;2023-08-24T09:22:00;101053.94;;;26.45;46.54
76973;BME280;65907;53.640;10.050;2023-08-24T09:24:29;101048.63;;;26.37;46.54
76973;BME280;65907;53.640;10.050;2023-08-24T09:26:54;101039.81;;;26.55;46.32
76973;BME280;65907;53.640;10.050;2023-08-24T09:29:20;101030.09;;;26.55;46.26
76973;BME280;65907;53.640;10.050;2023-08-24T09:31:46;101022.50;;;26.52;46.35
76973;BME280;65907;53.640;10.050;2023-08-24T09:34:15;101032.88;;;26.19;47.20
76973;BME280;65907;53.640;10.050;2023-08-24T09:36:44;101030.28;;;26.27;47.08
76973;BME280;65907;53.640;10.050;2023-08-24T09:39:11;101037.88;;;26.30;47.05
76973;BME280;65907;53.640;10.050;2023-08-24T09:41:45;101030.06;;;26.47;46.70
76973;BME280;65907;53.640;10.050;2023-08-24T09:44:10;101022.84;;;26.57;46.64
76973;BME280;65907;53.640;10.050;2023-08-24T09:46:37;101019.00;;;26.43;46.86
76973;BME280;65907;53.640;10.050;2023-08-24T09:49:05;101022.03;;;26.57;46.65
76973;BME280;65907;53.640;10.050;2023-08-24T09:51:30;101008.34;;;26.61;46.38
76973;BME280;65907;53.640;10.050;2023-08-24T09:53:57;101001.47;;;26.69;46.31
76973;BME280;65907;53.640;10.050;2023-08-24T09:56:25;100992.88;;;26.67;46.02
76973;BME280;65907;53.640;10.050;2023-08-24T09:58:51;100989.53;;;26.56;46.57
76973;BME280;65907;53.640;10.050;2023-08-24T10:01:16;100989.41;;;26.58;46.47
76973;BME280;65907;53.640;10.050;2023-08-24T10:03:42;100980.66;;;26.57;46.40
76973;BME280;65907;53.640;10.050;2023-08-24T10:06:08;100970.09;;;26.57;46.54
76973;BME280;65907;53.640;10.050;2023-08-24T10:08:36;100970.09;;;26.57;46.31
76973;BME280;65907;53.640;10.050;2023-08-24T10:11:02;100961.69;;;26.54;46.31
76973;BME280;65907;53.640;10.050;2023-08-24T10:15:53;100972.72;;;26.57;46.40
76973;BME280;65907;53.640;10.050;2023-08-24T10:18:20;100968.97;;;26.60;46.43
76973;BME280;65907;53.640;10.050;2023-08-24T10:20:49;100962.34;;;26.56;46.20
76973;BME280;65907;53.640;10.050;2023-08-24T10:23:14;100954.13;;;26.59;46.30
76973;BME280;65907;53.640;10.050;2023-08-24T10:25:40;100954.13;;;26.59;46.41
76973;BME280;65907;53.640;10.050;2023-08-24T10:28:07;100940.28;;;26.57;46.51
76973;BME280;65907;53.640;10.050;2023-08-24T10:30:32;100948.19;;;26.65;46.25
76973;BME280;65907;53.640;10.050;2023-08-24T10:32:59;100942.91;;;26.65;46.35
76973;BME280;65907;53.640;10.050;2023-08-24T10:35:25;100942.41;;;26.61;46.32
76973;BME280;65907;53.640;10.050;2023-08-24T10:37:54;100936.16;;;26.62;46.26
76973;BME280;65907;53.640;10.050;2023-08-24T10:40:35;100942.72;;;26.58;46.28
76973;BME280;65907;53.640;10.050;2023-08-24T10:43:04;100946.53;;;26.64;46.43
76973;BME280;65907;53.640;10.050;2023-08-24T10:48:16;100945.88;;;26.62;46.19
76973;BME280;65907;53.640;10.050;2023-08-24T10:50:41;100942.44;;;26.70;46.35
76973;BME280;65907;53.640;10.050;2023-08-24T10:53:07;100948.13;;;26.40;46.75
76973;BME280;65907;53.640;10.050;2023-08-24T10:55:35;100944.44;;;26.25;47.56
76973;BME280;65907;53.640;10.050;2023-08-24T10:58:02;100944.50;;;26.49;46.58
76973;BME280;65907;53.640;10.050;2023-08-24T11:00:28;100951.84;;;26.72;46.12
76973;BME280;65907;53.640;10.050;2023-08-24T11:02:54;100947.06;;;26.68;46.28
76973;BME280;65907;53.640;10.050;2023-08-24T11:10:25;100936.84;;;26.65;46.46
76973;BME280;65907;53.640;10.050;2023-08-24T11:13:09;100940.44;;;26.63;46.42
76973;BME280;65907;53.640;10.050;2023-08-24T11:18:13;100939.81;;;26.70;46.24
76973;BME280;65907;53.640;10.050;2023-08-24T11:20:48;100928.41;;;26.69;46.40
76973;BME280;65907;53.640;10.050;2023-08-24T11:23:17;100926.13;;;26.66;46.37
76973;BME280;65907;53.640;10.050;2023-08-24T11:25:42;100920.34;;;26.71;46.32
76973;BME280;65907;53.640;10.050;2023-08-24T11:28:08;100920.03;;;26.74;46.11
76973;BME280;65907;53.640;10.050;2023-08-24T11:30:36;100925.31;;;26.74;46.11
76973;BME280;65907;53.640;10.050;2023-08-24T11:33:01;100925.50;;;26.81;46.17
76973;BME280;65907;53.640;10.050;2023-08-24T11:35:27;100918.53;;;26.71;46.30
76973;BME280;65907;53.640;10.050;2023-08-24T11:37:53;100916.06;;;26.78;46.03
76973;BME280;65907;53.640;10.050;2023-08-24T11:40:18;100911.28;;;26.73;46.15
76973;BME280;65907;53.640;10.050;2023-08-24T11:42:45;100902.88;;;26.78;45.98
76973;BME280;65907;53.640;10.050;2023-08-24T11:45:18;100888.53;;;26.72;46.33
76973;BME280;65907;53.640;10.050;2023-08-24T11:47:43;100881.59;;;26.71;46.27
76973;BME280;65907;53.640;10.050;2023-08-24T11:50:09;100866.44;;;26.73;46.20
76973;BME280;65907;53.640;10.050;2023-08-24T11:52:38;100860.69;;;26.78;45.95
76973;BME280;65907;53.640;10.050;2023-08-24T11:55:04;100863.78;;;26.73;46.44
76973;BME280;65907;53.640;10.050;2023-08-24T11:57:33;100856.88;;;26.72;46.39
76973;BME280;65907;53.640;10.050;2023-08-24T11:59:58;100853.09;;;26.75;46.30
76973;BME280;65907;53.640;10.050;2023-08-24T12:02:23;100841.88;;;26.73;46.27
76973;BME280;65907;53.640;10.050;2023-08-24T12:04:49;100833.97;;;26.73;46.09
76973;BME280;65907;53.640;10.050;2023-08-24T12:07:20;100812.69;;;26.66;46.37
76973;BME280;65907;53.640;10.050;2023-08-24T12:09:45;100816.97;;;26.75;46.10
76973;BME280;65907;53.640;10.050;2023-08-24T12:12:17;100812.38;;;26.77;46.18
76973;BME280;65907;53.640;10.050;2023-08-24T12:14:44;100812.69;;;26.74;46.15
76973;BME280;65907;53.640;10.050;2023-08-24T12:17:09;100802.97;;;26.83;45.87
76973;BME280;65907;53.640;10.050;2023-08-24T12:19:35;100801.00;;;26.77;46.30
76973;BME280;65907;53.640;10.050;2023-08-24T12:22:00;100789.13;;;26.81;45.92
76973;BME280;65907;53.640;10.050;2023-08-24T12:24:28;100783.03;;;26.81;46.13
76973;BME280;65907;53.640;10.050;2023-08-24T12:26:56;100780.03;;;26.75;46.43
76973;BME280;65907;53.640;10.050;2023-08-24T12:29:23;100793.25;;;26.75;46.26
76973;BME280;65907;53.640;10.050;2023-08-24T12:31:48;100792.09;;;26.78;46.29
76973;BME280;65907;53.640;10.050;2023-08-24T12:34:14;100773.28;;;26.81;46.12
76973;BME280;65907;53.640;10.050;2023-08-24T12:36:42;100770.19;;;26.86;45.96
76973;BME280;65907;53.640;10.050;2023-08-24T12:39:10;100769.66;;;26.82;46.15
76973;BME280;65907;53.640;10.050;2023-08-24T12:41:40;100764.22;;;26.75;46.13
76973;BME280;65907;53.640;10.050;2023-08-24T12:44:07;100756.81;;;26.71;46.47
76973;BME280;65907;53.640;10.050;2023-08-24T12:46:33;100755.66;;;26.65;46.53
76973;BME280;65907;53.640;10.050;2023-08-24T12:49:00;100760.28;;;26.71;46.10
76973;BME280;65907;53.640;10.050;2023-08-24T12:51:25;100756.31;;;26.75;46.14